createdAt,value
2018-04-15T00:00:36.834Z,18.03
2018-04-15T00:01:16.686Z,18.07
2018-04-15T00:01:57.177Z,18.07
2018-04-15T00:02:37.660Z,18.02
2018-04-15T00:03:18.170Z,18.05
2018-04-15T00:03:58.614Z,18.03
2018-04-15T00:04:39.113Z,17.96
2018-04-15T00:05:19.718Z,17.96
2018-04-15T00:06:00.141Z,17.97
2018-04-15T00:06:40.599Z,17.93
2018-04-15T00:07:21.144Z,17.97
2018-04-15T00:08:01.647Z,17.86
2018-04-15T00:08:42.166Z,17.92
2018-04-15T00:09:22.666Z,18
2018-04-15T00:10:03.200Z,18
2018-04-15T00:10:43.671Z,18
2018-04-15T00:11:24.223Z,17.92
2018-04-15T00:12:04.698Z,17.9
2018-04-15T00:12:45.166Z,17.75
2018-04-15T00:13:25.653Z,17.75
2018-04-15T00:14:06.140Z,17.77
2018-04-15T00:14:46.648Z,17.79
2018-04-15T00:15:27.229Z,17.72
2018-04-15T00:16:07.692Z,17.64
2018-04-15T00:16:48.210Z,17.63
2018-04-15T00:17:28.651Z,17.56
2018-04-15T00:18:09.211Z,17.68
2018-04-15T00:18:49.719Z,17.7
2018-04-15T00:19:30.256Z,17.72
2018-04-15T00:20:10.704Z,17.74
2018-04-15T00:20:51.205Z,17.77
2018-04-15T00:21:31.695Z,17.71
2018-04-15T00:22:12.240Z,17.78
2018-04-15T00:22:52.725Z,17.79
2018-04-15T00:23:33.273Z,17.7
2018-04-15T00:24:13.719Z,17.74
2018-04-15T00:24:54.297Z,17.78
2018-04-15T00:25:34.846Z,17.74
2018-04-15T00:26:15.310Z,17.55
2018-04-15T00:26:55.808Z,17.58
2018-04-15T00:27:36.267Z,17.55
2018-04-15T00:28:16.771Z,17.55
2018-04-15T00:28:57.274Z,17.63
2018-04-15T00:29:37.749Z,17.63
2018-04-15T00:30:18.302Z,17.66
2018-04-15T00:30:58.820Z,17.77
2018-04-15T00:31:39.307Z,17.71
2018-04-15T00:32:19.846Z,17.77
2018-04-15T00:33:00.441Z,17.66
2018-04-15T00:33:40.879Z,17.68
2018-04-15T00:34:21.370Z,17.68
2018-04-15T00:35:01.797Z,17.7
2018-04-15T00:35:42.329Z,17.63
2018-04-15T00:36:23.161Z,17.58
2018-04-15T00:37:03.332Z,17.56
2018-04-15T00:37:43.799Z,17.52
2018-04-15T00:38:24.304Z,17.55
2018-04-15T00:39:04.767Z,17.59
2018-04-15T00:39:45.295Z,17.58
2018-04-15T00:40:25.787Z,17.52
2018-04-15T00:41:06.355Z,17.49
2018-04-15T00:41:46.979Z,17.49
2018-04-15T00:42:27.456Z,17.46
2018-04-15T00:43:07.995Z,17.52
2018-04-15T00:43:48.495Z,17.46
2018-04-15T00:44:29.205Z,17.52
2018-04-15T00:45:09.690Z,17.49
2018-04-15T00:45:50.213Z,17.48
2018-04-15T00:46:30.695Z,17.43
2018-04-15T00:47:11.168Z,17.49
2018-04-15T00:47:51.692Z,17.54
2018-04-15T00:48:32.169Z,17.58
2018-04-15T00:49:12.648Z,17.58
2018-04-15T00:49:53.108Z,17.54
2018-04-15T00:50:33.627Z,17.44
2018-04-15T00:51:14.082Z,17.49
2018-04-15T00:51:54.614Z,17.49
2018-04-15T00:52:35.122Z,17.46
2018-04-15T00:53:15.586Z,17.44
2018-04-15T00:53:56.050Z,17.43
2018-04-15T00:54:36.519Z,17.4
2018-04-15T00:55:17.066Z,17.41
2018-04-15T00:55:57.517Z,17.48
2018-04-15T00:56:37.990Z,17.43
2018-04-15T00:57:18.506Z,17.48
2018-04-15T00:57:59.009Z,17.56
2018-04-15T00:58:39.499Z,17.46
2018-04-15T00:59:19.976Z,17.41
2018-04-15T01:00:00.440Z,17.49
2018-04-15T01:00:40.984Z,17.46
2018-04-15T01:01:21.485Z,17.48
2018-04-15T01:02:01.990Z,17.38
2018-04-15T01:02:42.452Z,17.36
2018-04-15T01:03:23.003Z,17.44
2018-04-15T01:04:03.546Z,17.4
2018-04-15T01:04:44.073Z,17.48
2018-04-15T01:05:24.551Z,17.41
2018-04-15T01:06:05.042Z,17.46
2018-04-15T01:06:45.589Z,17.37
2018-04-15T01:07:26.077Z,17.38
2018-04-15T01:08:06.546Z,17.23
2018-04-15T01:08:47.054Z,17.23
2018-04-15T01:09:27.542Z,17.12
2018-04-15T01:10:08.079Z,17.18
2018-04-15T01:10:48.600Z,17.14
2018-04-15T01:11:29.076Z,17.25
2018-04-15T01:12:09.595Z,17.22
2018-04-15T01:12:50.073Z,17.22
2018-04-15T01:13:30.530Z,17.18
2018-04-15T01:14:11.077Z,17.22
2018-04-15T01:14:51.542Z,17.19
2018-04-15T01:15:32.136Z,17.22
2018-04-15T01:16:12.594Z,17.15
2018-04-15T01:16:53.105Z,17.15
2018-04-15T01:17:33.596Z,17.14
2018-04-15T01:18:14.064Z,17.14
2018-04-15T01:18:54.601Z,17.23
2018-04-15T01:19:35.105Z,17.21
2018-04-15T01:20:15.563Z,17.22
2018-04-15T01:20:56.060Z,17.21
2018-04-15T01:21:36.514Z,17.22
2018-04-15T01:22:16.993Z,17.31
2018-04-15T01:22:57.478Z,17.22
2018-04-15T01:23:38.017Z,17.15
2018-04-15T01:24:18.475Z,17.15
2018-04-15T01:24:59.023Z,17.22
2018-04-15T01:25:39.547Z,17.21
2018-04-15T01:26:20.066Z,17.25
2018-04-15T01:27:00.523Z,17.18
2018-04-15T01:27:41.027Z,17.22
2018-04-15T01:28:21.514Z,17.25
2018-04-15T01:29:02.037Z,17.26
2018-04-15T01:29:42.505Z,17.31
2018-04-15T01:30:22.971Z,17.25
2018-04-15T01:31:03.483Z,17.23
2018-04-15T01:31:43.951Z,17.25
2018-04-15T01:32:24.482Z,17.37
2018-04-15T01:33:05.001Z,17.33
2018-04-15T01:33:45.489Z,17.31
2018-04-15T01:34:25.985Z,17.38
2018-04-15T01:35:06.509Z,17.22
2018-04-15T01:35:46.978Z,17.26
2018-04-15T01:36:27.487Z,17.18
2018-04-15T01:37:07.982Z,17.06
2018-04-15T01:37:48.498Z,17.12
2018-04-15T01:38:28.957Z,17.12
2018-04-15T01:39:09.466Z,17.11
2018-04-15T01:39:49.961Z,17.11
2018-04-15T01:40:30.437Z,17
2018-04-15T01:41:10.949Z,16.91
2018-04-15T01:41:51.448Z,16.91
2018-04-15T01:42:31.958Z,16.96
2018-04-15T01:43:12.434Z,17
2018-04-15T01:43:52.957Z,16.96
2018-04-15T01:44:33.461Z,16.98
2018-04-15T01:45:14.105Z,16.96
2018-04-15T01:45:54.594Z,16.89
2018-04-15T01:46:35.070Z,16.85
2018-04-15T01:47:15.590Z,16.82
2018-04-15T01:47:56.079Z,16.86
2018-04-15T01:48:36.592Z,16.78
2018-04-15T01:49:17.104Z,16.86
2018-04-15T01:49:57.588Z,16.89
2018-04-15T01:50:38.054Z,16.94
2018-04-15T01:51:18.568Z,16.88
2018-04-15T01:51:59.036Z,16.76
2018-04-15T01:52:39.549Z,16.76
2018-04-15T01:53:20.055Z,16.73
2018-04-15T01:54:00.517Z,16.86
2018-04-15T01:54:41.019Z,16.83
2018-04-15T01:55:21.501Z,16.82
2018-04-15T01:56:02.045Z,16.7
2018-04-15T01:56:42.517Z,16.82
2018-04-15T01:57:23.013Z,16.76
2018-04-15T01:58:03.524Z,16.79
2018-04-15T01:58:44.040Z,16.88
2018-04-15T01:59:24.508Z,16.63
2018-04-15T02:00:05.009Z,16.78
2018-04-15T02:00:45.491Z,16.7
2018-04-15T02:01:26.017Z,16.73
2018-04-15T02:02:06.539Z,16.68
2018-04-15T02:02:47.061Z,16.71
2018-04-15T02:03:27.576Z,16.56
2018-04-15T02:04:08.048Z,16.71
2018-04-15T02:04:48.591Z,16.7
2018-04-15T02:05:29.055Z,16.71
2018-04-15T02:06:09.524Z,16.7
2018-04-15T02:06:50.005Z,16.63
2018-04-15T02:07:30.510Z,16.7
2018-04-15T02:08:11.147Z,16.76
2018-04-15T02:08:51.651Z,16.68
2018-04-15T02:09:32.128Z,16.78
2018-04-15T02:10:12.658Z,16.71
2018-04-15T02:10:53.121Z,16.83
2018-04-15T02:11:33.586Z,16.94
2018-04-15T02:12:14.084Z,16.97
2018-04-15T02:12:54.625Z,16.89
2018-04-15T02:13:35.068Z,16.88
2018-04-15T02:14:15.566Z,16.79
2018-04-15T02:14:56.047Z,16.79
2018-04-15T02:15:36.561Z,16.88
2018-04-15T02:16:17.067Z,16.82
2018-04-15T02:16:57.522Z,16.83
2018-04-15T02:17:38.019Z,16.76
2018-04-15T02:18:18.520Z,16.88
2018-04-15T02:18:59.006Z,16.85
2018-04-15T02:19:39.446Z,16.91
2018-04-15T02:20:19.954Z,16.94
2018-04-15T02:21:00.465Z,16.89
2018-04-15T02:21:40.949Z,16.91
2018-04-15T02:22:21.464Z,16.97
2018-04-15T02:23:02.004Z,16.89
2018-04-15T02:23:42.470Z,16.86
2018-04-15T02:24:22.927Z,16.91
2018-04-15T02:25:03.666Z,16.96
2018-04-15T02:25:44.196Z,16.94
2018-04-15T02:26:24.701Z,16.83
2018-04-15T02:27:05.186Z,16.93
2018-04-15T02:27:45.654Z,16.86
2018-04-15T02:28:26.134Z,16.89
2018-04-15T02:29:06.675Z,16.85
2018-04-15T02:29:47.185Z,16.86
2018-04-15T02:30:27.605Z,16.79
2018-04-15T02:31:08.121Z,16.88
2018-04-15T02:31:48.603Z,16.85
2018-04-15T02:32:29.104Z,16.82
2018-04-15T02:33:09.567Z,16.85
2018-04-15T02:33:50.052Z,16.83
2018-04-15T02:34:30.554Z,16.88
2018-04-15T02:35:11.048Z,16.89
2018-04-15T02:35:51.498Z,16.98
2018-04-15T02:36:32.008Z,17
2018-04-15T02:37:12.493Z,17
2018-04-15T02:37:52.980Z,17.01
2018-04-15T02:38:33.451Z,16.96
2018-04-15T02:39:14.004Z,16.98
2018-04-15T02:39:54.477Z,16.98
2018-04-15T02:40:34.964Z,16.96
2018-04-15T02:41:15.433Z,16.96
2018-04-15T02:41:55.943Z,16.97
2018-04-15T02:42:36.421Z,17
2018-04-15T02:43:16.885Z,17.08
2018-04-15T02:43:57.388Z,17.12
2018-04-15T02:44:37.895Z,17.11
2018-04-15T02:45:18.375Z,17.07
2018-04-15T02:45:58.905Z,17.12
2018-04-15T02:46:39.385Z,17.06
2018-04-15T02:47:19.877Z,17.04
2018-04-15T02:48:00.329Z,17.04
2018-04-15T02:48:40.880Z,17
2018-04-15T02:49:21.377Z,17
2018-04-15T02:50:01.880Z,17
2018-04-15T02:50:42.382Z,17.01
2018-04-15T02:51:22.876Z,17.08
2018-04-15T02:52:03.323Z,17
2018-04-15T02:52:43.832Z,17.04
2018-04-15T02:53:24.446Z,17.07
2018-04-15T02:54:04.867Z,17.12
2018-04-15T02:54:45.381Z,17.14
2018-04-15T02:55:25.868Z,17.18
2018-04-15T02:56:06.377Z,17.16
2018-04-15T02:56:46.875Z,17.18
2018-04-15T02:57:27.419Z,17.18
2018-04-15T02:58:07.875Z,17.22
2018-04-15T02:58:48.403Z,17.21
2018-04-15T02:59:28.889Z,17.21
2018-04-15T03:00:09.366Z,17.25
2018-04-15T03:00:49.887Z,17.21
2018-04-15T03:01:30.334Z,17.12
2018-04-15T03:02:10.821Z,17.08
2018-04-15T03:02:51.681Z,17.22
2018-04-15T03:03:31.806Z,17.25
2018-04-15T03:04:12.323Z,17.19
2018-04-15T03:04:52.820Z,17.15
2018-04-15T03:05:33.325Z,17.08
2018-04-15T03:06:13.813Z,17.07
2018-04-15T03:06:54.262Z,17.04
2018-04-15T03:07:34.768Z,17.11
2018-04-15T03:08:15.264Z,17.06
2018-04-15T03:08:55.757Z,17.12
2018-04-15T03:09:36.282Z,17.08
2018-04-15T03:10:16.813Z,17.06
2018-04-15T03:10:57.321Z,17.08
2018-04-15T03:11:37.803Z,17.08
2018-04-15T03:12:18.304Z,17.11
2018-04-15T03:12:58.798Z,17.12
2018-04-15T03:13:39.278Z,17.08
2018-04-15T03:14:19.749Z,17.11
2018-04-15T03:15:00.261Z,17.08
2018-04-15T03:15:40.761Z,17.15
2018-04-15T03:16:21.254Z,17.08
2018-04-15T03:17:01.734Z,17.07
2018-04-15T03:17:42.248Z,17.07
2018-04-15T03:18:22.707Z,16.97
2018-04-15T03:19:03.220Z,17.03
2018-04-15T03:19:43.712Z,16.98
2018-04-15T03:20:24.220Z,16.98
2018-04-15T03:21:04.685Z,17.03
2018-04-15T03:21:45.171Z,16.91
2018-04-15T03:22:25.638Z,16.83
2018-04-15T03:23:06.163Z,16.83
2018-04-15T03:23:46.647Z,16.88
2018-04-15T03:24:27.142Z,17.01
2018-04-15T03:25:07.653Z,17.03
2018-04-15T03:25:48.130Z,17
2018-04-15T03:26:28.603Z,16.91
2018-04-15T03:27:09.152Z,16.97
2018-04-15T03:27:49.609Z,16.97
2018-04-15T03:28:30.093Z,17.03
2018-04-15T03:29:10.577Z,17.01
2018-04-15T03:29:51.047Z,17
2018-04-15T03:30:31.586Z,16.94
2018-04-15T03:31:12.191Z,16.98
2018-04-15T03:31:52.692Z,17.01
2018-04-15T03:32:33.148Z,16.93
2018-04-15T03:33:13.609Z,16.94
2018-04-15T03:33:54.103Z,16.93
2018-04-15T03:34:34.598Z,16.86
2018-04-15T03:35:15.062Z,16.82
2018-04-15T03:35:55.555Z,16.85
2018-04-15T03:36:36.063Z,16.82
2018-04-15T03:37:16.545Z,16.7
2018-04-15T03:37:57.058Z,16.83
2018-04-15T03:38:37.543Z,16.81
2018-04-15T03:39:18.024Z,16.81
2018-04-15T03:39:58.513Z,16.94
2018-04-15T03:40:38.984Z,16.82
2018-04-15T03:41:19.473Z,16.81
2018-04-15T03:41:59.947Z,16.76
2018-04-15T03:42:40.466Z,16.85
2018-04-15T03:43:20.942Z,16.71
2018-04-15T03:44:01.434Z,16.83
2018-04-15T03:44:41.917Z,16.79
2018-04-15T03:45:22.388Z,16.91
2018-04-15T03:46:02.897Z,16.79
2018-04-15T03:46:43.341Z,16.89
2018-04-15T03:47:23.869Z,16.81
2018-04-15T03:48:04.320Z,16.96
2018-04-15T03:48:44.820Z,16.97
2018-04-15T03:49:25.335Z,16.94
2018-04-15T03:50:05.810Z,17.03
2018-04-15T03:50:46.325Z,17.07
2018-04-15T03:51:26.746Z,16.96
2018-04-15T03:52:07.272Z,16.96
2018-04-15T03:52:47.732Z,16.93
2018-04-15T03:53:28.264Z,16.98
2018-04-15T03:54:08.726Z,16.96
2018-04-15T03:54:49.219Z,16.88
2018-04-15T03:55:29.683Z,16.89
2018-04-15T03:56:10.157Z,16.82
2018-04-15T03:56:50.615Z,16.85
2018-04-15T03:57:31.138Z,16.85
2018-04-15T03:58:11.593Z,16.81
2018-04-15T03:58:52.352Z,16.78
2018-04-15T03:59:32.892Z,16.83
2018-04-15T04:00:13.350Z,16.85
2018-04-15T04:00:53.861Z,16.85
2018-04-15T04:01:34.336Z,16.81
2018-04-15T04:02:14.788Z,16.79
2018-04-15T04:02:55.332Z,16.82
2018-04-15T04:03:35.828Z,16.83
2018-04-15T04:04:16.332Z,16.82
2018-04-15T04:04:56.815Z,16.91
2018-04-15T04:05:37.323Z,16.94
2018-04-15T04:06:17.784Z,16.78
2018-04-15T04:06:58.259Z,16.85
2018-04-15T04:07:38.783Z,16.85
2018-04-15T04:08:19.284Z,16.89
2018-04-15T04:08:59.767Z,16.88
2018-04-15T04:09:40.302Z,16.88
2018-04-15T04:10:20.786Z,16.79
2018-04-15T04:11:01.413Z,16.82
2018-04-15T04:11:41.776Z,16.83
2018-04-15T04:12:22.269Z,16.76
2018-04-15T04:13:02.762Z,16.76
2018-04-15T04:13:43.223Z,16.71
2018-04-15T04:14:23.714Z,16.61
2018-04-15T04:15:04.228Z,16.53
2018-04-15T04:15:44.665Z,16.53
2018-04-15T04:16:25.167Z,16.57
2018-04-15T04:17:05.666Z,16.56
2018-04-15T04:17:46.207Z,16.57
2018-04-15T04:18:26.714Z,16.7
2018-04-15T04:19:07.250Z,16.66
2018-04-15T04:19:47.754Z,16.71
2018-04-15T04:20:28.313Z,16.68
2018-04-15T04:21:08.795Z,16.73
2018-04-15T04:21:49.303Z,16.7
2018-04-15T04:22:29.850Z,16.73
2018-04-15T04:23:10.357Z,16.83
2018-04-15T04:23:50.871Z,16.83
2018-04-15T04:24:31.381Z,16.85
2018-04-15T04:25:11.903Z,16.83
2018-04-15T04:25:52.425Z,16.76
2018-04-15T04:26:32.943Z,16.94
2018-04-15T04:27:13.461Z,16.85
2018-04-15T04:27:53.997Z,16.93
2018-04-15T04:28:34.532Z,16.89
2018-04-15T04:29:15.050Z,16.96
2018-04-15T04:29:55.576Z,16.93
2018-04-15T04:30:36.089Z,16.97
2018-04-15T04:31:16.606Z,16.88
2018-04-15T04:31:57.116Z,16.85
2018-04-15T04:32:37.637Z,16.89
2018-04-15T04:33:18.151Z,16.93
2018-04-15T04:33:58.672Z,16.97
2018-04-15T04:34:39.182Z,16.96
2018-04-15T04:35:19.700Z,17.01
2018-04-15T04:36:00.220Z,16.98
2018-04-15T04:36:40.742Z,17
2018-04-15T04:37:21.263Z,17
2018-04-15T04:38:01.799Z,17.06
2018-04-15T04:38:42.312Z,17.01
2018-04-15T04:39:22.843Z,17.03
2018-04-15T04:40:03.357Z,16.97
2018-04-15T04:40:43.872Z,17.12
2018-04-15T04:41:24.386Z,16.98
2018-04-15T04:42:04.936Z,16.89
2018-04-15T04:42:45.458Z,16.96
2018-04-15T04:43:25.975Z,16.96
2018-04-15T04:44:06.494Z,16.89
2018-04-15T04:44:47.016Z,16.86
2018-04-15T04:45:27.539Z,16.93
2018-04-15T04:46:08.076Z,16.86
2018-04-15T04:46:48.601Z,16.94
2018-04-15T04:47:29.115Z,16.94
2018-04-15T04:48:09.622Z,16.83
2018-04-15T04:48:50.130Z,16.83
2018-04-15T04:49:31.231Z,16.89
2018-04-15T04:50:11.754Z,16.86
2018-04-15T04:50:52.328Z,16.88
2018-04-15T04:51:32.815Z,16.85
2018-04-15T04:52:13.320Z,16.94
2018-04-15T04:52:53.847Z,16.86
2018-04-15T04:53:34.355Z,16.82
2018-04-15T04:54:14.873Z,16.91
2018-04-15T04:54:55.376Z,16.89
2018-04-15T04:55:35.918Z,16.88
2018-04-15T04:56:16.439Z,16.86
2018-04-15T04:56:56.944Z,16.91
2018-04-15T04:57:37.465Z,16.91
2018-04-15T04:58:17.983Z,16.89
2018-04-15T04:58:58.502Z,17.06
2018-04-15T04:59:39.023Z,17
2018-04-15T05:00:19.545Z,16.97
2018-04-15T05:01:00.062Z,17.03
2018-04-15T05:01:40.575Z,17.04
2018-04-15T05:02:21.098Z,17.06
2018-04-15T05:03:01.582Z,17.12
2018-04-15T05:03:42.097Z,17.11
2018-04-15T05:04:22.611Z,17.11
2018-04-15T05:05:03.085Z,17.06
2018-04-15T05:05:43.592Z,16.96
2018-04-15T05:06:24.111Z,17
2018-04-15T05:07:04.571Z,17.12
2018-04-15T05:07:45.139Z,17.03
2018-04-15T05:08:25.652Z,17.07
2018-04-15T05:09:06.120Z,17.12
2018-04-15T05:09:46.651Z,17.22
2018-04-15T05:10:27.126Z,17.07
2018-04-15T05:11:07.592Z,17.11
2018-04-15T05:11:48.072Z,17.15
2018-04-15T05:12:28.548Z,17.12
2018-04-15T05:13:09.076Z,17.08
2018-04-15T05:13:49.593Z,17.08
2018-04-15T05:14:30.050Z,17.07
2018-04-15T05:15:10.569Z,17.03
2018-04-15T05:15:51.048Z,17.04
2018-04-15T05:16:31.569Z,17.11
2018-04-15T05:17:12.101Z,17.07
2018-04-15T05:17:52.572Z,17.25
2018-04-15T05:18:33.043Z,17.21
2018-04-15T05:19:13.537Z,17.21
2018-04-15T05:19:54.049Z,17.22
2018-04-15T05:20:34.484Z,17.25
2018-04-15T05:21:14.968Z,17.22
2018-04-15T05:21:55.482Z,17.26
2018-04-15T05:22:35.959Z,17.22
2018-04-15T05:23:16.423Z,17.18
2018-04-15T05:23:56.943Z,17.22
2018-04-15T05:24:37.483Z,17.21
2018-04-15T05:25:17.951Z,17.11
2018-04-15T05:25:58.477Z,17.08
2018-04-15T05:26:38.948Z,17.22
2018-04-15T05:27:19.489Z,17.18
2018-04-15T05:27:59.975Z,17.22
2018-04-15T05:28:40.467Z,17.12
2018-04-15T05:29:20.978Z,17.23
2018-04-15T05:30:01.473Z,17.19
2018-04-15T05:30:41.984Z,17.21
2018-04-15T05:31:22.500Z,17.22
2018-04-15T05:32:03.025Z,17.26
2018-04-15T05:32:43.471Z,17.33
2018-04-15T05:33:23.983Z,17.31
2018-04-15T05:34:04.415Z,17.36
2018-04-15T05:34:44.932Z,17.37
2018-04-15T05:35:25.499Z,17.34
2018-04-15T05:36:05.970Z,17.37
2018-04-15T05:36:46.701Z,17.36
2018-04-15T05:37:27.182Z,17.26
2018-04-15T05:38:07.653Z,17.21
2018-04-15T05:38:48.161Z,17.23
2018-04-15T05:39:28.941Z,17.23
2018-04-15T05:40:09.428Z,17.25
2018-04-15T05:40:49.956Z,17.23
2018-04-15T05:41:30.435Z,17.11
2018-04-15T05:42:11.075Z,17.23
2018-04-15T05:42:51.529Z,17.18
2018-04-15T05:43:32.008Z,17.23
2018-04-15T05:44:12.516Z,17.11
2018-04-15T05:44:53.292Z,17.07
2018-04-15T05:45:33.677Z,17.22
2018-04-15T05:46:14.532Z,17.23
2018-04-15T05:46:55.517Z,17.28
2018-04-15T05:47:36.057Z,17.25
2018-04-15T05:48:16.489Z,17.38
2018-04-15T05:48:56.946Z,17.38
2018-04-15T05:49:37.477Z,17.4
2018-04-15T05:50:17.928Z,17.54
2018-04-15T05:50:58.400Z,17.52
2018-04-15T05:51:39.188Z,17.59
2018-04-15T05:52:20.122Z,17.56
2018-04-15T05:53:00.652Z,17.58
2018-04-15T05:53:41.136Z,17.75
2018-04-15T05:54:21.696Z,17.79
2018-04-15T05:55:02.195Z,17.74
2018-04-15T05:55:42.693Z,17.92
2018-04-15T05:56:23.202Z,17.92
2018-04-15T05:57:03.703Z,17.86
2018-04-15T05:57:44.188Z,17.9
2018-04-15T05:58:24.678Z,17.95
2018-04-15T05:59:05.193Z,18.05
2018-04-15T05:59:45.693Z,18
2018-04-15T06:00:26.207Z,18.02
2018-04-15T06:01:06.662Z,17.84
2018-04-15T06:01:47.202Z,17.93
2018-04-15T06:02:27.727Z,17.95
2018-04-15T06:03:08.509Z,17.96
2018-04-15T06:03:49.006Z,18.1
2018-04-15T06:04:29.540Z,18.12
2018-04-15T06:05:10.063Z,18.26
2018-04-15T06:05:50.610Z,18.21
2018-04-15T06:06:31.149Z,18.3
2018-04-15T06:07:11.645Z,18.23
2018-04-15T06:07:52.150Z,18.2
2018-04-15T06:08:32.653Z,18.25
2018-04-15T06:09:13.163Z,18.29
2018-04-15T06:09:53.697Z,18.37
2018-04-15T06:10:34.213Z,18.39
2018-04-15T06:11:14.728Z,18.51
2018-04-15T06:11:55.246Z,18.37
2018-04-15T06:12:35.752Z,18.41
2018-04-15T06:13:16.281Z,18.47
2018-04-15T06:13:57.172Z,18.52
2018-04-15T06:14:37.686Z,18.52
2018-04-15T06:15:18.281Z,18.55
2018-04-15T06:15:58.811Z,18.48
2018-04-15T06:16:39.329Z,18.58
2018-04-15T06:17:19.847Z,18.51
2018-04-15T06:18:00.359Z,18.57
2018-04-15T06:18:40.885Z,18.63
2018-04-15T06:19:21.401Z,18.6
2018-04-15T06:20:01.938Z,18.63
2018-04-15T06:20:42.464Z,18.75
2018-04-15T06:21:22.972Z,18.7
2018-04-15T06:22:03.531Z,18.75
2018-04-15T06:22:44.008Z,18.85
2018-04-15T06:23:24.530Z,18.99
2018-04-15T06:24:05.050Z,18.9
2018-04-15T06:24:45.563Z,18.95
2018-04-15T06:25:26.088Z,18.94
2018-04-15T06:26:06.600Z,18.98
2018-04-15T06:26:47.106Z,18.99
2018-04-15T06:27:27.703Z,18.88
2018-04-15T06:28:08.589Z,18.9
2018-04-15T06:28:49.123Z,18.95
2018-04-15T06:29:29.628Z,19.07
2018-04-15T06:30:10.171Z,19.02
2018-04-15T06:30:50.694Z,19.11
2018-04-15T06:31:31.212Z,19.28
2018-04-15T06:32:11.743Z,19.22
2018-04-15T06:32:52.248Z,19.22
2018-04-15T06:33:32.770Z,19.21
2018-04-15T06:34:13.287Z,19.29
2018-04-15T06:34:53.954Z,19.31
2018-04-15T06:36:52.239Z,19.41
2018-04-15T06:37:32.703Z,19.48
2018-04-15T06:38:13.231Z,19.51
2018-04-15T06:38:53.976Z,19.61
2018-04-15T06:39:34.559Z,19.65
2018-04-15T06:40:15.065Z,19.66
2018-04-15T06:40:55.583Z,19.66
2018-04-15T06:41:36.114Z,19.74
2018-04-15T06:42:16.630Z,19.8
2018-04-15T06:42:57.124Z,19.86
2018-04-15T06:43:37.680Z,19.86
2018-04-15T06:44:18.206Z,19.88
2018-04-15T06:44:58.741Z,19.95
2018-04-15T06:45:39.246Z,19.94
2018-04-15T06:46:19.776Z,19.92
2018-04-15T06:47:00.303Z,20.1
2018-04-15T06:47:40.801Z,20.11
2018-04-15T06:48:21.309Z,20.14
2018-04-15T06:49:01.820Z,20.17
2018-04-15T06:49:42.371Z,20.11
2018-04-15T06:50:22.862Z,20.2
2018-04-15T06:51:03.376Z,20.14
2018-04-15T06:51:43.940Z,20.13
2018-04-15T06:52:24.453Z,20.23
2018-04-15T06:53:04.974Z,20.17
2018-04-15T06:53:45.486Z,20.14
2018-04-15T06:54:26.006Z,20.06
2018-04-15T06:55:06.523Z,20.08
2018-04-15T06:55:47.076Z,20.06
2018-04-15T06:56:27.579Z,19.95
2018-04-15T06:57:08.107Z,20.08
2018-04-15T06:57:48.621Z,19.95
2018-04-15T06:58:29.144Z,19.94
2018-04-15T06:59:09.671Z,19.94
2018-04-15T06:59:50.189Z,19.96
2018-04-15T07:00:30.724Z,19.95
2018-04-15T07:01:11.253Z,19.96
2018-04-15T07:01:51.758Z,19.84
2018-04-15T07:02:32.262Z,19.98
2018-04-15T07:03:12.776Z,20.1
2018-04-15T07:03:53.288Z,20.14
2018-04-15T07:04:33.805Z,20.26
2018-04-15T07:06:33.820Z,20.5
2018-04-15T07:07:14.553Z,20.43
2018-04-15T07:07:55.104Z,20.47
2018-04-15T07:08:35.621Z,20.47
2018-04-15T07:09:16.140Z,20.47
2018-04-15T07:09:56.699Z,20.48
2018-04-15T07:10:37.216Z,20.35
2018-04-15T07:11:17.733Z,20.48
2018-04-15T07:11:58.256Z,20.47
2018-04-15T07:12:38.805Z,20.58
2018-04-15T07:13:20.082Z,20.55
2018-04-15T07:14:00.617Z,20.57
2018-04-15T07:14:41.146Z,20.58
2018-04-15T07:15:21.658Z,20.64
2018-04-15T07:16:02.180Z,20.57
2018-04-15T07:16:42.706Z,20.51
2018-04-15T07:17:23.214Z,20.55
2018-04-15T07:18:03.742Z,20.41
2018-04-15T07:18:44.255Z,20.39
2018-04-15T07:19:24.790Z,20.43
2018-04-15T07:21:17.922Z,20.39
2018-04-15T07:21:58.488Z,20.39
2018-04-15T07:22:38.993Z,20.38
2018-04-15T07:23:19.699Z,20.43
2018-04-15T07:24:00.219Z,20.36
2018-04-15T07:24:40.728Z,20.28
2018-04-15T07:25:21.260Z,20.33
2018-04-15T07:26:01.783Z,20.29
2018-04-15T07:26:42.288Z,20.14
2018-04-15T07:27:22.818Z,20.13
2018-04-15T07:28:03.323Z,20.13
2018-04-15T07:28:43.857Z,20.06
2018-04-15T07:29:24.367Z,20.08
2018-04-15T07:30:04.878Z,20.05
2018-04-15T07:30:45.404Z,20.08
2018-04-15T07:31:25.918Z,20.14
2018-04-15T07:32:06.455Z,20.16
2018-04-15T07:32:46.981Z,20.06
2018-04-15T07:33:27.615Z,19.94
2018-04-15T07:34:08.126Z,19.95
2018-04-15T07:34:48.647Z,20.08
2018-04-15T07:35:29.184Z,19.92
2018-04-15T07:36:09.714Z,19.92
2018-04-15T07:36:50.241Z,20.01
2018-04-15T07:37:30.768Z,19.92
2018-04-15T07:38:11.407Z,19.94
2018-04-15T07:38:51.920Z,19.96
2018-04-15T07:39:32.451Z,19.94
2018-04-15T07:40:12.970Z,20.1
2018-04-15T07:40:53.522Z,20.28
2018-04-15T07:41:34.031Z,20.28
2018-04-15T07:42:14.544Z,20.32
2018-04-15T07:42:55.086Z,20.29
2018-04-15T07:43:35.606Z,20.41
2018-04-15T07:44:16.135Z,20.47
2018-04-15T07:44:56.674Z,20.48
2018-04-15T07:45:37.191Z,20.5
2018-04-15T07:46:17.717Z,20.5
2018-04-15T07:46:58.254Z,20.51
2018-04-15T07:47:38.753Z,20.57
2018-04-15T07:48:19.281Z,20.74
2018-04-15T07:48:59.993Z,20.84
2018-04-15T07:49:40.490Z,20.92
2018-04-15T07:50:21.010Z,20.87
2018-04-15T07:51:01.550Z,20.87
2018-04-15T07:51:42.017Z,21.07
2018-04-15T07:52:22.487Z,21.01
2018-04-15T07:53:03.001Z,20.98
2018-04-15T07:53:43.701Z,21.03
2018-04-15T07:54:24.080Z,21.04
2018-04-15T07:55:04.626Z,21.01
2018-04-15T07:55:45.081Z,21.06
2018-04-15T07:56:28.998Z,21.03
2018-04-15T07:57:08.700Z,21.14
2018-04-15T07:57:52.697Z,21.12
2018-04-15T07:58:33.611Z,21.09
2018-04-15T07:59:14.284Z,21.04
2018-04-15T07:59:54.789Z,21.07
2018-04-15T08:00:35.357Z,21.06
2018-04-15T08:01:15.876Z,21.04
2018-04-15T08:01:57.315Z,21.01
2018-04-15T08:02:38.385Z,21.04
2018-04-15T08:03:18.907Z,21.04
2018-04-15T08:03:59.878Z,21.13
2018-04-15T08:04:40.394Z,21.06
2018-04-15T08:05:20.876Z,21.07
2018-04-15T08:06:01.408Z,21.06
2018-04-15T08:06:42.888Z,21.04
2018-04-15T08:07:23.396Z,21.14
2018-04-15T08:08:03.857Z,21.16
2018-04-15T08:08:44.369Z,21.19
2018-04-15T08:09:24.841Z,21.04
2018-04-15T08:10:06.106Z,21.01
2018-04-15T08:10:45.895Z,21.04
2018-04-15T08:11:26.501Z,21.07
2018-04-15T08:12:09.163Z,21.22
2018-04-15T08:12:48.938Z,21.19
2018-04-15T08:13:29.415Z,21.04
2018-04-15T08:14:09.895Z,21.17
2018-04-15T08:14:51.185Z,21.14
2018-04-15T08:15:31.765Z,21.17
2018-04-15T08:16:12.249Z,21.24
2018-04-15T08:16:52.869Z,21.12
2018-04-15T08:17:33.395Z,21.25
2018-04-15T08:18:14.019Z,21.37
2018-04-15T08:18:54.960Z,21.17
2018-04-15T08:19:35.044Z,21.21
2018-04-15T08:20:15.612Z,21.19
2018-04-15T08:20:56.178Z,21.19
2018-04-15T08:21:36.671Z,21.14
2018-04-15T08:22:17.181Z,21.14
2018-04-15T08:22:58.338Z,21.1
2018-04-15T08:23:38.752Z,21.17
2018-04-15T08:24:19.286Z,21.14
2018-04-15T08:24:59.764Z,21.28
2018-04-15T08:25:40.331Z,21.22
2018-04-15T08:26:20.751Z,21.31
2018-04-15T08:27:01.353Z,21.29
2018-04-15T08:27:41.839Z,21.13
2018-04-15T08:28:22.315Z,21.22
2018-04-15T08:29:03.041Z,21.37
2018-04-15T08:29:43.502Z,21.27
2018-04-15T08:30:24.038Z,21.29
2018-04-15T08:31:04.603Z,21.19
2018-04-15T08:31:45.143Z,21.17
2018-04-15T08:32:26.097Z,21.19
2018-04-15T08:33:08.220Z,21.22
2018-04-15T08:33:48.687Z,21.28
2018-04-15T08:34:29.206Z,21.21
2018-04-15T08:35:09.727Z,21.19
2018-04-15T08:35:50.171Z,21.27
2018-04-15T08:36:30.656Z,21.37
2018-04-15T08:37:11.156Z,21.25
2018-04-15T08:37:51.935Z,21.24
2018-04-15T08:38:33.448Z,21.22
2018-04-15T08:39:14.904Z,21.34
2018-04-15T08:39:56.440Z,21.24
2018-04-15T08:40:37.903Z,21.29
2018-04-15T08:41:19.282Z,21.24
2018-04-15T08:42:00.899Z,21.12
2018-04-15T08:42:42.436Z,21.1
2018-04-15T08:43:23.931Z,21.06
2018-04-15T08:44:05.343Z,21.1
2018-04-15T08:44:46.970Z,21.07
2018-04-15T08:45:28.270Z,21.22
2018-04-15T08:46:08.782Z,21.25
2018-04-15T08:46:49.300Z,21.27
2018-04-15T08:47:29.828Z,21.27
2018-04-15T08:48:10.361Z,21.32